Time;durP1;ratioP1;P1;durP2;ratioP2;P2;SDS_P1;SDS_P2;PMS_P1;PMS_P2;Temp;Humidity;BMP_temperature;BMP_pressure;BME280_temperature;BME280_humidity;BME280_pressure;Samples;Min_cycle;Max_cycle;Signal;HPM_P1;HPM_P2
2023/09/30 00:02:06;;;;;;;3.53;1.27;;;;;;;;;;4999873;28;24720;-73
2023/09/30 00:04:32;;;;;;;3.95;1.52;;;;;;;;;;5009091;28;20713;-73
2023/09/30 00:06:57;;;;;;;4.78;1.48;;;;;;;;;;5004166;28;20045;-73
2023/09/30 00:09:22;;;;;;;2.80;1.30;;;;;;;;;;5009353;28;20041;-74
2023/09/30 00:11:48;;;;;;;4.45;1.30;;;;;;;;;;5011168;28;20530;-73
2023/09/30 00:14:14;;;;;;;3.45;1.30;;;;;;;;;;5002189;28;20038;-73
2023/09/30 00:16:39;;;;;;;3.17;1.05;;;;;;;;;;5002274;28;20070;-74
2023/09/30 00:19:05;;;;;;;1.98;1.23;;;;;;;;;;4995783;28;20653;-74
2023/09/30 00:21:30;;;;;;;3.78;1.13;;;;;;;;;;5008796;28;20446;-73
2023/09/30 00:23:56;;;;;;;7.32;1.45;;;;;;;;;;5004118;28;20131;-73
2023/09/30 00:26:22;;;;;;;2.78;1.30;;;;;;;;;;5008552;28;20108;-73
2023/09/30 00:28:47;;;;;;;3.95;1.52;;;;;;;;;;5006095;28;20037;-73
2023/09/30 00:31:13;;;;;;;2.33;1.20;;;;;;;;;;4985963;28;20518;-73
2023/09/30 00:33:38;;;;;;;4.18;1.40;;;;;;;;;;4992734;28;20048;-72
2023/09/30 00:36:11;;;;;;;3.08;1.63;;;;;;;;;;5011876;28;20065;-73
2023/09/30 00:38:37;;;;;;;2.53;1.10;;;;;;;;;;5002988;28;20510;-73
2023/09/30 00:41:03;;;;;;;2.03;1.08;;;;;;;;;;5008295;28;20061;-73
2023/09/30 00:43:28;;;;;;;2.95;1.40;;;;;;;;;;5002888;28;20529;-72
2023/09/30 00:46:05;;;;;;;2.22;1.15;;;;;;;;;;5010047;28;20049;-73
2023/09/30 00:48:32;;;;;;;4.47;1.33;;;;;;;;;;4999372;28;20063;-73
2023/09/30 00:50:57;;;;;;;3.47;1.25;;;;;;;;;;5009246;28;20040;-73
2023/09/30 00:53:23;;;;;;;3.85;0.95;;;;;;;;;;5006312;28;20033;-72
2023/09/30 00:55:49;;;;;;;5.85;1.80;;;;;;;;;;5000312;28;20033;-72
2023/09/30 00:58:16;;;;;;;1.80;1.10;;;;;;;;;;5004465;28;20061;-73
2023/09/30 01:00:42;;;;;;;3.90;1.48;;;;;;;;;;5007377;28;20049;-73
2023/09/30 01:03:07;;;;;;;3.42;1.23;;;;;;;;;;4998363;28;20050;-72
2023/09/30 01:05:33;;;;;;;5.03;1.35;;;;;;;;;;4999521;28;20080;-72
2023/09/30 01:08:02;;;;;;;4.93;1.63;;;;;;;;;;5008956;28;20121;-72
2023/09/30 01:10:28;;;;;;;5.05;1.38;;;;;;;;;;4999165;28;20033;-72
2023/09/30 01:12:53;;;;;;;4.70;1.30;;;;;;;;;;5009854;28;20463;-72
2023/09/30 01:15:19;;;;;;;3.10;1.50;;;;;;;;;;4991686;28;20041;-72
2023/09/30 01:17:44;;;;;;;4.22;1.67;;;;;;;;;;5005007;28;20045;-72
2023/09/30 01:20:16;;;;;;;3.33;1.25;;;;;;;;;;5012791;28;20044;-73
2023/09/30 01:22:41;;;;;;;4.53;1.67;;;;;;;;;;5011308;28;20048;-73
2023/09/30 01:25:09;;;;;;;2.53;1.10;;;;;;;;;;4998183;28;20034;-74
2023/09/30 01:27:35;;;;;;;5.25;1.40;;;;;;;;;;5005174;28;20049;-73
2023/09/30 01:30:00;;;;;;;6.65;1.92;;;;;;;;;;5002238;28;20045;-73
2023/09/30 01:32:26;;;;;;;3.55;1.38;;;;;;;;;;5014661;28;20049;-73
2023/09/30 01:34:52;;;;;;;3.75;1.60;;;;;;;;;;5013287;28;20033;-73
2023/09/30 01:37:17;;;;;;;3.22;1.35;;;;;;;;;;4999222;28;20033;-73
2023/09/30 01:39:45;;;;;;;2.85;1.55;;;;;;;;;;5011400;28;20047;-73
2023/09/30 01:42:10;;;;;;;4.63;1.90;;;;;;;;;;5011484;28;20527;-73
2023/09/30 01:44:36;;;;;;;2.53;1.08;;;;;;;;;;5001224;28;20045;-72
2023/09/30 01:47:01;;;;;;;6.10;1.95;;;;;;;;;;5005848;28;20590;-73
2023/09/30 01:49:26;;;;;;;2.92;1.50;;;;;;;;;;5008974;28;20091;-74
2023/09/30 01:51:52;;;;;;;3.75;1.30;;;;;;;;;;4986702;28;20051;-73
2023/09/30 01:54:18;;;;;;;2.65;1.73;;;;;;;;;;5007970;28;20124;-73
2023/09/30 01:56:43;;;;;;;4.75;1.63;;;;;;;;;;5007463;28;20113;-73
2023/09/30 01:59:09;;;;;;;6.35;2.05;;;;;;;;;;4994655;28;20097;-72
2023/09/30 02:01:34;;;;;;;6.97;1.65;;;;;;;;;;5011918;28;20075;-73
2023/09/30 02:03:59;;;;;;;2.78;1.77;;;;;;;;;;5000937;28;20113;-73
2023/09/30 02:06:25;;;;;;;3.80;1.50;;;;;;;;;;4997029;28;20705;-73
2023/09/30 02:08:51;;;;;;;9.10;2.03;;;;;;;;;;5004293;28;20038;-73
2023/09/30 02:11:16;;;;;;;3.28;1.20;;;;;;;;;;5008792;28;20103;-73
2023/09/30 02:13:43;;;;;;;2.78;1.17;;;;;;;;;;5012790;28;20658;-73
2023/09/30 02:16:15;;;;;;;5.13;1.40;;;;;;;;;;5015207;28;20183;-72
2023/09/30 02:18:44;;;;;;;5.53;1.98;;;;;;;;;;5010157;28;20568;-73
2023/09/30 02:21:10;;;;;;;6.80;1.80;;;;;;;;;;5000853;28;20038;-73
2023/09/30 02:23:36;;;;;;;4.25;1.50;;;;;;;;;;4992183;28;20136;-73
2023/09/30 02:26:02;;;;;;;3.53;1.73;;;;;;;;;;5006477;28;20038;-73
2023/09/30 02:28:29;;;;;;;3.75;1.55;;;;;;;;;;5018464;28;20044;-73
2023/09/30 02:30:54;;;;;;;3.67;1.55;;;;;;;;;;5023519;28;20077;-72
2023/09/30 02:33:20;;;;;;;7.80;1.65;;;;;;;;;;5017840;28;20056;-73
2023/09/30 02:35:45;;;;;;;2.70;1.40;;;;;;;;;;5021807;28;20183;-72
2023/09/30 02:38:11;;;;;;;2.90;1.10;;;;;;;;;;5027641;28;20119;-73
2023/09/30 02:40:38;;;;;;;4.80;1.90;;;;;;;;;;5017310;28;20060;-72
2023/09/30 02:43:04;;;;;;;7.32;2.33;;;;;;;;;;5017675;28;20058;-72
2023/09/30 02:45:29;;;;;;;6.28;1.85;;;;;;;;;;5026414;28;20080;-73
2023/09/30 02:47:55;;;;;;;5.20;1.48;;;;;;;;;;5021328;28;20068;-73
2023/09/30 02:50:21;;;;;;;4.22;1.63;;;;;;;;;;5028339;28;20029;-73
2023/09/30 02:52:46;;;;;;;3.15;1.52;;;;;;;;;;5015069;28;20072;-73
2023/09/30 02:55:12;;;;;;;5.22;1.60;;;;;;;;;;5026682;28;20548;-73
2023/09/30 02:57:38;;;;;;;6.43;1.63;;;;;;;;;;5025931;28;20067;-73
2023/09/30 03:00:14;;;;;;;3.97;1.63;;;;;;;;;;5030759;28;20116;-73
2023/09/30 03:02:40;;;;;;;4.32;1.30;;;;;;;;;;5015800;28;20041;-73
2023/09/30 03:05:07;;;;;;;3.67;1.70;;;;;;;;;;5009760;28;20138;-72
2023/09/30 03:07:33;;;;;;;5.82;1.60;;;;;;;;;;5011276;28;20042;-72
2023/09/30 03:10:00;;;;;;;5.18;1.67;;;;;;;;;;5015179;28;20033;-73
2023/09/30 03:12:25;;;;;;;3.30;1.50;;;;;;;;;;5013774;28;20045;-72
2023/09/30 03:14:51;;;;;;;4.07;1.70;;;;;;;;;;5025316;28;20045;-72
2023/09/30 03:17:17;;;;;;;6.50;2.28;;;;;;;;;;5014894;28;20040;-72
2023/09/30 03:19:43;;;;;;;3.53;1.50;;;;;;;;;;5011556;28;20096;-73
2023/09/30 03:22:11;;;;;;;7.13;2.08;;;;;;;;;;5014908;28;20041;-73
2023/09/30 03:24:39;;;;;;;3.00;1.42;;;;;;;;;;5015110;28;20045;-73
2023/09/30 03:27:05;;;;;;;4.07;1.80;;;;;;;;;;5005157;28;20041;-73
2023/09/30 03:29:31;;;;;;;3.42;1.40;;;;;;;;;;5000508;28;20030;-73
2023/09/30 03:31:56;;;;;;;2.92;1.10;;;;;;;;;;5010878;28;20045;-73
2023/09/30 03:34:21;;;;;;;2.40;1.30;;;;;;;;;;5004097;28;20050;-73
2023/09/30 03:36:47;;;;;;;6.70;1.75;;;;;;;;;;5006243;28;20129;-72
2023/09/30 03:39:15;;;;;;;4.22;2.08;;;;;;;;;;5005797;28;20621;-73
2023/09/30 03:41:40;;;;;;;4.15;1.63;;;;;;;;;;4997769;28;20045;-73
2023/09/30 03:44:06;;;;;;;4.40;1.70;;;;;;;;;;5004405;28;20424;-72
2023/09/30 03:46:31;;;;;;;3.47;1.48;;;;;;;;;;5009639;28;20037;-72
2023/09/30 03:48:57;;;;;;;3.15;1.25;;;;;;;;;;4996929;28;20057;-73
2023/09/30 03:51:25;;;;;;;2.35;1.20;;;;;;;;;;4997182;28;20045;-73
2023/09/30 03:53:51;;;;;;;2.80;1.13;;;;;;;;;;5009868;28;20116;-73
2023/09/30 03:56:18;;;;;;;5.03;1.58;;;;;;;;;;5016040;28;20040;-73
2023/09/30 03:58:44;;;;;;;4.55;1.55;;;;;;;;;;4996226;28;20037;-73
2023/09/30 04:01:13;;;;;;;4.18;1.50;;;;;;;;;;5009769;28;20057;-73
2023/09/30 04:03:39;;;;;;;5.25;1.42;;;;;;;;;;4988705;28;20037;-73
2023/09/30 04:06:06;;;;;;;5.30;1.80;;;;;;;;;;4993141;28;20088;-73
2023/09/30 04:08:33;;;;;;;4.53;1.77;;;;;;;;;;5005984;28;20034;-73
2023/09/30 04:10:59;;;;;;;4.82;1.50;;;;;;;;;;4984851;28;20049;-73
2023/09/30 04:13:25;;;;;;;3.85;1.20;;;;;;;;;;4988505;28;20045;-73
2023/09/30 04:15:51;;;;;;;3.97;1.20;;;;;;;;;;5024016;28;20044;-74
2023/09/30 04:18:16;;;;;;;2.88;1.38;;;;;;;;;;5029146;28;20526;-73
2023/09/30 04:20:42;;;;;;;3.72;1.38;;;;;;;;;;5008188;28;20038;-73
2023/09/30 04:23:09;;;;;;;6.57;1.50;;;;;;;;;;5028790;28;20044;-73
2023/09/30 04:25:35;;;;;;;3.35;1.30;;;;;;;;;;5016156;28;20044;-73
2023/09/30 04:28:00;;;;;;;3.15;1.17;;;;;;;;;;5032484;28;20040;-73
2023/09/30 04:30:27;;;;;;;4.50;1.50;;;;;;;;;;5021957;28;20051;-73
2023/09/30 04:32:53;;;;;;;2.55;1.35;;;;;;;;;;5003087;28;20536;-73
2023/09/30 04:35:18;;;;;;;6.43;1.80;;;;;;;;;;5033970;28;20132;-73
2023/09/30 04:37:43;;;;;;;8.15;2.58;;;;;;;;;;5029382;28;20510;-73
2023/09/30 04:40:15;;;;;;;5.38;1.85;;;;;;;;;;5022893;28;20501;-72
2023/09/30 04:42:43;;;;;;;2.60;1.27;;;;;;;;;;5022151;28;20120;-73
2023/09/30 04:45:10;;;;;;;7.13;2.33;;;;;;;;;;5022095;28;20037;-73
2023/09/30 04:47:37;;;;;;;3.63;1.33;;;;;;;;;;5032655;28;20044;-73
2023/09/30 04:50:04;;;;;;;2.78;1.30;;;;;;;;;;5020798;28;20033;-73
2023/09/30 04:52:30;;;;;;;2.55;1.15;;;;;;;;;;5034963;28;20581;-73
2023/09/30 04:54:56;;;;;;;5.15;1.60;;;;;;;;;;4975684;28;20479;-73
2023/09/30 04:57:22;;;;;;;5.35;1.83;;;;;;;;;;4979850;28;20064;-73
2023/09/30 04:59:47;;;;;;;2.67;1.52;;;;;;;;;;5023170;28;20033;-73
2023/09/30 05:02:15;;;;;;;2.90;1.63;;;;;;;;;;5017084;28;20458;-73
2023/09/30 05:04:42;;;;;;;5.72;2.40;;;;;;;;;;5020059;28;20041;-73
2023/09/30 05:07:07;;;;;;;5.30;1.67;;;;;;;;;;5005764;28;20176;-73
2023/09/30 05:09:33;;;;;;;2.97;1.63;;;;;;;;;;5010932;28;20077;-73
2023/09/30 05:11:58;;;;;;;4.43;1.90;;;;;;;;;;5002193;28;20037;-74
2023/09/30 05:14:23;;;;;;;6.45;1.77;;;;;;;;;;5018544;28;20414;-74
2023/09/30 05:16:49;;;;;;;1.75;1.15;;;;;;;;;;5025337;28;20060;-74
2023/09/30 05:19:14;;;;;;;6.70;2.50;;;;;;;;;;5028059;28;20050;-73
2023/09/30 05:21:40;;;;;;;5.00;1.50;;;;;;;;;;5018327;28;20075;-73
2023/09/30 14:40:37;;;;;;;3.47;1.02;;;;;;;;;;5064022;28;20051;-74
2023/09/30 14:43:05;;;;;;;3.67;0.80;;;;;;;;;;5063096;28;20426;-73
2023/09/30 14:45:31;;;;;;;2.60;0.80;;;;;;;;;;5078370;28;20024;-74
2023/09/30 14:47:56;;;;;;;1.70;0.90;;;;;;;;;;5078807;28;20119;-74
2023/09/30 14:50:22;;;;;;;5.07;1.20;;;;;;;;;;5079766;28;20549;-74
2023/09/30 14:52:47;;;;;;;3.33;0.93;;;;;;;;;;5077034;28;20028;-74
2023/09/30 14:55:13;;;;;;;2.55;0.80;;;;;;;;;;5076407;28;20078;-74
2023/09/30 14:57:38;;;;;;;3.83;1.00;;;;;;;;;;5079647;28;20024;-74
2023/09/30 15:00:06;;;;;;;3.58;1.30;;;;;;;;;;5079877;28;20024;-74
2023/09/30 15:02:31;;;;;;;3.15;1.23;;;;;;;;;;5075319;28;20017;-74
2023/09/30 15:04:56;;;;;;;3.20;1.00;;;;;;;;;;5081797;28;20043;-74
2023/09/30 15:07:22;;;;;;;3.10;0.70;;;;;;;;;;5081395;28;20024;-74
2023/09/30 15:09:47;;;;;;;3.00;1.30;;;;;;;;;;5081153;28;20024;-74
2023/09/30 15:12:13;;;;;;;2.30;1.10;;;;;;;;;;5071121;28;20037;-74
2023/09/30 15:14:38;;;;;;;3.38;0.88;;;;;;;;;;5061954;28;20015;-74
2023/09/30 15:17:03;;;;;;;3.78;0.80;;;;;;;;;;5079693;28;20020;-75
2023/09/30 15:19:29;;;;;;;3.08;1.00;;;;;;;;;;5080740;28;20020;-74
2023/09/30 15:21:54;;;;;;;2.38;1.10;;;;;;;;;;5084295;28;20024;-74
2023/09/30 15:24:20;;;;;;;1.85;0.80;;;;;;;;;;5084174;28;20028;-74
2023/09/30 15:26:45;;;;;;;2.45;0.98;;;;;;;;;;5084846;28;20438;-74
2023/09/30 15:29:11;;;;;;;2.38;1.05;;;;;;;;;;5081476;28;20035;-74
2023/09/30 15:31:36;;;;;;;2.10;0.90;;;;;;;;;;5073979;28;20028;-74
2023/09/30 15:34:02;;;;;;;2.83;1.10;;;;;;;;;;5077034;28;20136;-74
2023/09/30 15:36:28;;;;;;;2.58;1.00;;;;;;;;;;5080510;28;20036;-74
2023/09/30 15:38:53;;;;;;;2.72;1.42;;;;;;;;;;5084298;28;20656;-74
2023/09/30 15:41:25;;;;;;;3.20;0.98;;;;;;;;;;5076351;28;20114;-74
2023/09/30 15:43:51;;;;;;;4.25;1.58;;;;;;;;;;5082280;28;20048;-74
2023/09/30 15:46:18;;;;;;;2.30;1.00;;;;;;;;;;5076688;28;20020;-74
2023/09/30 15:48:44;;;;;;;2.90;0.98;;;;;;;;;;5071270;28;20437;-74
2023/09/30 15:51:10;;;;;;;4.80;1.10;;;;;;;;;;5080739;28;20044;-74
2023/09/30 15:53:36;;;;;;;5.25;1.02;;;;;;;;;;5061686;28;20027;-74
2023/09/30 15:56:04;;;;;;;2.55;0.80;;;;;;;;;;5060345;28;20543;-74
2023/09/30 15:58:30;;;;;;;3.08;0.80;;;;;;;;;;5079941;28;20375;-74
2023/09/30 16:00:56;;;;;;;2.42;1.10;;;;;;;;;;5072743;28;20035;-74
2023/09/30 16:03:22;;;;;;;1.70;0.98;;;;;;;;;;5085301;28;20132;-74
2023/09/30 16:05:48;;;;;;;1.77;0.73;;;;;;;;;;5081820;28;20016;-74
2023/09/30 16:08:13;;;;;;;1.85;0.80;;;;;;;;;;5086400;28;20024;-74
2023/09/30 16:10:39;;;;;;;2.45;0.82;;;;;;;;;;5086363;28;20074;-74
2023/09/30 16:13:11;;;;;;;4.95;1.10;;;;;;;;;;5079576;28;20027;-74
2023/09/30 16:15:42;;;;;;;2.50;1.00;;;;;;;;;;5082178;28;20032;-74
2023/09/30 16:18:08;;;;;;;2.72;1.00;;;;;;;;;;5080287;28;20553;-74
2023/09/30 16:20:33;;;;;;;4.07;1.15;;;;;;;;;;5083585;28;20036;-74
2023/09/30 16:22:59;;;;;;;3.38;0.77;;;;;;;;;;5079898;28;20040;-74
2023/09/30 16:25:24;;;;;;;2.05;0.90;;;;;;;;;;5054973;28;20028;-74
2023/09/30 16:27:51;;;;;;;2.30;0.95;;;;;;;;;;5082679;28;20027;-74
2023/09/30 16:30:18;;;;;;;3.63;1.00;;;;;;;;;;5080429;28;20082;-74
2023/09/30 16:32:43;;;;;;;3.15;1.00;;;;;;;;;;5078988;28;20016;-74
2023/09/30 16:35:09;;;;;;;3.97;1.20;;;;;;;;;;5080484;28;20691;-74
2023/09/30 16:37:35;;;;;;;3.80;1.10;;;;;;;;;;5061854;28;20144;-76
2023/09/30 16:40:01;;;;;;;2.72;1.08;;;;;;;;;;5078404;28;20440;-74
2023/09/30 16:42:28;;;;;;;3.63;0.98;;;;;;;;;;5081035;28;20054;-74
2023/09/30 16:44:54;;;;;;;2.35;0.70;;;;;;;;;;5079118;28;20028;-76
2023/09/30 16:47:19;;;;;;;0.88;0.50;;;;;;;;;;5081873;28;20043;-76
2023/09/30 16:49:47;;;;;;;1.35;0.70;;;;;;;;;;5084356;28;20016;-76
2023/09/30 16:52:13;;;;;;;1.67;0.90;;;;;;;;;;5079002;28;20024;-74
2023/09/30 16:54:38;;;;;;;1.10;0.80;;;;;;;;;;5084832;28;20027;-74
2023/09/30 16:57:04;;;;;;;3.25;1.00;;;;;;;;;;5078556;28;20017;-74
2023/09/30 16:59:30;;;;;;;2.45;1.10;;;;;;;;;;5080318;28;20020;-74
2023/09/30 17:01:55;;;;;;;2.35;0.73;;;;;;;;;;5078896;28;20020;-74
2023/09/30 17:04:21;;;;;;;1.95;1.17;;;;;;;;;;5074790;28;20029;-74
2023/09/30 17:06:46;;;;;;;2.03;1.00;;;;;;;;;;5078027;28;20077;-74
2023/09/30 17:09:12;;;;;;;1.98;0.70;;;;;;;;;;5083414;28;20571;-74
2023/09/30 17:11:38;;;;;;;2.15;1.00;;;;;;;;;;5082032;28;20043;-74
2023/09/30 17:14:03;;;;;;;1.77;1.17;;;;;;;;;;5082909;28;20059;-74
2023/09/30 17:16:30;;;;;;;2.25;0.80;;;;;;;;;;5061388;28;20599;-74
2023/09/30 17:18:55;;;;;;;2.40;0.90;;;;;;;;;;5071184;28;20448;-74
2023/09/30 17:21:20;;;;;;;2.70;0.85;;;;;;;;;;5077193;28;20107;-74
2023/09/30 17:23:46;;;;;;;2.60;1.00;;;;;;;;;;5075678;28;20511;-74
2023/09/30 17:26:11;;;;;;;4.07;1.25;;;;;;;;;;5082286;28;20024;-74
2023/09/30 17:28:37;;;;;;;2.83;1.15;;;;;;;;;;5054006;28;20029;-74
2023/09/30 17:31:06;;;;;;;3.03;1.00;;;;;;;;;;5075467;28;20043;-74
2023/09/30 17:33:33;;;;;;;2.28;0.70;;;;;;;;;;5074707;28;20552;-76
2023/09/30 17:36:03;;;;;;;3.28;0.80;;;;;;;;;;5075962;28;20650;-74
2023/09/30 17:38:29;;;;;;;1.13;0.80;;;;;;;;;;5074240;28;20458;-76
2023/09/30 17:41:01;;;;;;;2.25;0.85;;;;;;;;;;5078253;28;20380;-74
2023/09/30 17:43:30;;;;;;;1.50;1.05;;;;;;;;;;5077688;28;20082;-74
2023/09/30 17:45:56;;;;;;;4.25;2.55;;;;;;;;;;5079869;28;20032;-74
2023/09/30 17:48:22;;;;;;;7.18;3.15;;;;;;;;;;5081762;28;20495;-74
2023/09/30 17:50:50;;;;;;;3.78;2.90;;;;;;;;;;5078596;28;20420;-74
2023/09/30 17:53:15;;;;;;;7.25;4.25;;;;;;;;;;5075735;28;20924;-74
2023/09/30 17:55:41;;;;;;;7.15;3.55;;;;;;;;;;5079466;28;20016;-74
2023/09/30 17:58:07;;;;;;;3.35;1.63;;;;;;;;;;5076132;28;20033;-74
2023/09/30 18:00:33;;;;;;;3.67;1.25;;;;;;;;;;5078441;28;20032;-73
2023/09/30 18:02:58;;;;;;;2.33;1.10;;;;;;;;;;5075661;28;20031;-76
2023/09/30 18:05:25;;;;;;;4.53;1.23;;;;;;;;;;5080131;28;20025;-75
2023/09/30 18:07:52;;;;;;;5.65;3.13;;;;;;;;;;5061820;28;20373;-75
2023/09/30 18:10:19;;;;;;;9.43;4.90;;;;;;;;;;5079694;28;20112;-75
2023/09/30 18:12:46;;;;;;;6.40;4.20;;;;;;;;;;5079481;28;20016;-75
2023/09/30 18:15:12;;;;;;;4.13;2.20;;;;;;;;;;5078294;28;20089;-76
2023/09/30 18:17:37;;;;;;;4.03;2.40;;;;;;;;;;5079024;28;20027;-74
2023/09/30 18:20:05;;;;;;;4.43;2.45;;;;;;;;;;5077561;28;20020;-74
2023/09/30 18:22:34;;;;;;;8.80;6.40;;;;;;;;;;5077649;28;20020;-78
2023/09/30 18:25:00;;;;;;;4.75;3.30;;;;;;;;;;5076802;28;20039;-78
2023/09/30 18:27:25;;;;;;;4.22;2.42;;;;;;;;;;5080019;28;20032;-77
2023/09/30 18:29:51;;;;;;;3.13;2.05;;;;;;;;;;5076143;28;20020;-77
2023/09/30 18:32:16;;;;;;;3.33;1.70;;;;;;;;;;5077435;28;20027;-77
2023/09/30 18:34:41;;;;;;;3.97;1.70;;;;;;;;;;5084027;28;20545;-75
2023/09/30 18:37:07;;;;;;;6.15;2.30;;;;;;;;;;5084277;28;20035;-77
2023/09/30 18:39:32;;;;;;;2.65;1.60;;;;;;;;;;5076229;28;20123;-77
2023/09/30 18:41:57;;;;;;;2.42;1.42;;;;;;;;;;5075467;28;20484;-78
2023/09/30 18:44:23;;;;;;;3.97;2.20;;;;;;;;;;5082225;28;20028;-77
2023/09/30 18:46:50;;;;;;;3.65;2.28;;;;;;;;;;5083265;28;20349;-77
2023/09/30 18:49:16;;;;;;;5.13;2.22;;;;;;;;;;5083955;28;20047;-76
2023/09/30 18:51:42;;;;;;;2.50;1.90;;;;;;;;;;5082528;28;20012;-74
2023/09/30 18:54:08;;;;;;;6.63;2.17;;;;;;;;;;5087395;28;20055;-75
2023/09/30 18:56:34;;;;;;;5.85;2.83;;;;;;;;;;5076967;28;20066;-76
2023/09/30 18:58:59;;;;;;;13.93;6.70;;;;;;;;;;5073883;28;20507;-78
2023/09/30 19:01:24;;;;;;;36.30;15.48;;;;;;;;;;5082445;28;20034;-76
2023/09/30 19:03:50;;;;;;;23.08;10.38;;;;;;;;;;5085570;28;20075;-76
2023/09/30 19:06:15;;;;;;;19.42;8.50;;;;;;;;;;5081990;28;20037;-78
2023/09/30 19:08:40;;;;;;;26.50;10.70;;;;;;;;;;5073169;28;20693;-75
2023/09/30 19:11:06;;;;;;;14.30;6.60;;;;;;;;;;5069435;28;20055;-76
2023/09/30 19:13:31;;;;;;;10.23;5.20;;;;;;;;;;5061483;28;20123;-76
2023/09/30 19:15:57;;;;;;;9.63;4.05;;;;;;;;;;5043244;28;20171;-77
2023/09/30 19:18:22;;;;;;;6.28;3.40;;;;;;;;;;5055145;28;20028;-75
2023/09/30 19:20:48;;;;;;;4.95;3.25;;;;;;;;;;5049118;28;20465;-77
2023/09/30 19:23:14;;;;;;;8.45;4.50;;;;;;;;;;5066015;28;20036;-77
2023/09/30 19:25:39;;;;;;;5.50;2.28;;;;;;;;;;5059429;28;20028;-77
2023/09/30 19:28:05;;;;;;;3.80;2.15;;;;;;;;;;5053612;28;20119;-76
2023/09/30 19:30:30;;;;;;;4.57;2.35;;;;;;;;;;5063001;28;20070;-75
2023/09/30 19:32:56;;;;;;;6.32;2.55;;;;;;;;;;5016904;28;20044;-75
2023/09/30 19:35:22;;;;;;;4.55;2.10;;;;;;;;;;5059029;28;20115;-75
2023/09/30 19:37:48;;;;;;;6.82;2.30;;;;;;;;;;5063161;28;20036;-75
2023/09/30 19:40:14;;;;;;;4.82;2.15;;;;;;;;;;5062124;28;20184;-75
2023/09/30 19:42:40;;;;;;;4.82;2.50;;;;;;;;;;5069995;28;20170;-73
2023/09/30 19:45:05;;;;;;;4.88;2.60;;;;;;;;;;5065808;28;20126;-74
2023/09/30 19:47:31;;;;;;;3.38;2.38;;;;;;;;;;5040164;28;20067;-75
2023/09/30 19:49:57;;;;;;;10.85;5.53;;;;;;;;;;5056802;28;20048;-75
2023/09/30 19:52:28;;;;;;;8.48;4.90;;;;;;;;;;5045120;28;20630;-73
2023/09/30 19:54:54;;;;;;;9.50;5.40;;;;;;;;;;5056660;28;20044;-76
2023/09/30 19:57:19;;;;;;;8.77;4.85;;;;;;;;;;5047982;28;20040;-76
2023/09/30 19:59:46;;;;;;;5.78;3.45;;;;;;;;;;5027278;28;20037;-73
2023/09/30 20:02:11;;;;;;;8.25;3.58;;;;;;;;;;5016046;28;20515;-75
2023/09/30 20:04:37;;;;;;;8.20;4.47;;;;;;;;;;5066745;28;20048;-75
2023/09/30 20:07:03;;;;;;;6.55;4.80;;;;;;;;;;5058870;28;20404;-75
2023/09/30 20:09:29;;;;;;;5.85;3.20;;;;;;;;;;5062047;28;20052;-75
2023/09/30 20:11:58;;;;;;;9.70;5.57;;;;;;;;;;5058010;28;20115;-77
2023/09/30 20:14:23;;;;;;;7.70;5.10;;;;;;;;;;5042716;28;20041;-76
2023/09/30 20:16:49;;;;;;;11.65;8.75;;;;;;;;;;5053773;28;20040;-73
2023/09/30 20:19:14;;;;;;;5.45;3.67;;;;;;;;;;5070741;28;20137;-72
2023/09/30 20:21:40;;;;;;;7.32;4.40;;;;;;;;;;5072503;28;20029;-73
2023/09/30 20:24:07;;;;;;;7.22;4.78;;;;;;;;;;5058129;28;20063;-74
2023/09/30 20:26:34;;;;;;;8.75;4.90;;;;;;;;;;5059472;28;20033;-75
2023/09/30 20:28:59;;;;;;;6.43;4.20;;;;;;;;;;5048602;28;20074;-73
2023/09/30 20:31:25;;;;;;;5.65;3.35;;;;;;;;;;5052835;28;20040;-74
2023/09/30 20:33:50;;;;;;;7.43;5.35;;;;;;;;;;5070330;28;20039;-72
2023/09/30 20:36:15;;;;;;;7.30;5.03;;;;;;;;;;5067631;28;20089;-72
2023/09/30 20:38:41;;;;;;;7.10;4.80;;;;;;;;;;5066929;28;20063;-74
2023/09/30 20:41:07;;;;;;;5.22;3.65;;;;;;;;;;5058148;28;20143;-72
2023/09/30 20:43:33;;;;;;;6.03;3.65;;;;;;;;;;5035083;28;20507;-72
2023/09/30 20:46:02;;;;;;;4.65;2.95;;;;;;;;;;5047600;28;20067;-72
2023/09/30 20:48:28;;;;;;;5.85;3.45;;;;;;;;;;5058152;28;20721;-74
2023/09/30 20:50:54;;;;;;;6.50;4.07;;;;;;;;;;5065463;28;20773;-75
2023/09/30 20:53:19;;;;;;;9.95;5.70;;;;;;;;;;5064169;28;20111;-74
2023/09/30 20:55:45;;;;;;;6.63;3.28;;;;;;;;;;5064534;28;20039;-75
2023/09/30 20:58:10;;;;;;;3.83;2.80;;;;;;;;;;5046311;28;20032;-75
2023/09/30 21:00:35;;;;;;;5.05;2.53;;;;;;;;;;5055792;28;20041;-75
2023/09/30 21:03:01;;;;;;;6.50;3.42;;;;;;;;;;5056108;28;20740;-74
2023/09/30 21:05:27;;;;;;;6.97;4.63;;;;;;;;;;5050973;28;20483;-75
2023/09/30 21:07:52;;;;;;;8.90;5.38;;;;;;;;;;5052647;28;20098;-75
2023/09/30 21:10:18;;;;;;;12.02;5.93;;;;;;;;;;5054287;28;20196;-75
2023/09/30 21:12:43;;;;;;;12.93;5.97;;;;;;;;;;5032937;28;20050;-74
2023/09/30 21:15:09;;;;;;;7.18;3.03;;;;;;;;;;5059847;28;20050;-75
2023/09/30 21:17:34;;;;;;;12.15;5.35;;;;;;;;;;5064397;28;20040;-75
2023/09/30 21:20:00;;;;;;;8.98;4.55;;;;;;;;;;5064694;28;20039;-74
2023/09/30 21:22:25;;;;;;;8.57;5.32;;;;;;;;;;5060202;28;20570;-74
2023/09/30 21:24:51;;;;;;;11.18;4.75;;;;;;;;;;5034996;28;20072;-74
2023/09/30 21:27:16;;;;;;;8.10;3.63;;;;;;;;;;5028685;28;20524;-74
2023/09/30 21:29:41;;;;;;;5.82;3.50;;;;;;;;;;5064396;28;20089;-75
2023/09/30 21:32:07;;;;;;;5.55;3.28;;;;;;;;;;5057799;28;20071;-74
2023/09/30 21:34:32;;;;;;;4.80;3.00;;;;;;;;;;5057931;28;20032;-75
2023/09/30 21:36:57;;;;;;;5.45;3.30;;;;;;;;;;5039243;28;20051;-73
2023/09/30 21:39:23;;;;;;;5.43;3.50;;;;;;;;;;5054243;28;20047;-74
2023/09/30 21:41:48;;;;;;;8.30;3.25;;;;;;;;;;5036572;28;20028;-75
2023/09/30 21:44:14;;;;;;;6.55;3.30;;;;;;;;;;5052251;28;20047;-74
2023/09/30 21:46:39;;;;;;;6.10;3.20;;;;;;;;;;5059849;28;20369;-75
2023/09/30 21:49:04;;;;;;;5.68;3.22;;;;;;;;;;5067955;28;20086;-75
2023/09/30 21:51:30;;;;;;;6.90;3.85;;;;;;;;;;5064380;28;20040;-76
2023/09/30 21:53:55;;;;;;;5.57;2.80;;;;;;;;;;5063710;28;20044;-76
2023/09/30 21:56:21;;;;;;;6.57;3.83;;;;;;;;;;5042058;28;20032;-76
2023/09/30 21:58:48;;;;;;;6.28;3.47;;;;;;;;;;5057365;28;20240;-76
2023/09/30 22:01:14;;;;;;;6.35;4.25;;;;;;;;;;5059772;28;20032;-76
2023/09/30 22:03:42;;;;;;;7.90;4.93;;;;;;;;;;5055159;28;20041;-76
2023/09/30 22:06:08;;;;;;;4.57;3.10;;;;;;;;;;5058181;28;20120;-76
2023/09/30 22:08:33;;;;;;;6.38;4.05;;;;;;;;;;5033781;28;20119;-76
2023/09/30 22:10:59;;;;;;;5.22;3.10;;;;;;;;;;5053229;28;20036;-76
2023/09/30 22:13:25;;;;;;;4.90;3.30;;;;;;;;;;5059143;28;20759;-76
2023/09/30 22:15:51;;;;;;;5.22;2.78;;;;;;;;;;5066679;28;20044;-76
2023/09/30 22:18:18;;;;;;;4.05;2.55;;;;;;;;;;5052816;28;20036;-75
2023/09/30 22:20:46;;;;;;;3.40;2.47;;;;;;;;;;5051608;28;20032;-75
2023/09/30 22:23:11;;;;;;;5.20;2.28;;;;;;;;;;5044816;28;20055;-74
2023/09/30 22:25:37;;;;;;;2.67;1.85;;;;;;;;;;5029498;28;20041;-75
2023/09/30 22:28:04;;;;;;;2.67;1.83;;;;;;;;;;5058626;28;20086;-75
2023/09/30 22:30:30;;;;;;;4.78;2.78;;;;;;;;;;5053074;28;20067;-74
2023/09/30 22:32:57;;;;;;;6.65;3.33;;;;;;;;;;5059182;28;20106;-76
2023/09/30 22:35:23;;;;;;;5.35;2.88;;;;;;;;;;5052094;28;20210;-76
2023/09/30 22:37:49;;;;;;;2.65;2.10;;;;;;;;;;5052257;28;20539;-76
2023/09/30 22:40:15;;;;;;;3.10;2.30;;;;;;;;;;5066012;28;20169;-76
2023/09/30 22:42:40;;;;;;;6.88;4.20;;;;;;;;;;5067250;28;20040;-77
2023/09/30 22:45:08;;;;;;;6.63;3.80;;;;;;;;;;5057082;28;20551;-77
2023/09/30 22:47:47;;;;;;;3.83;2.45;;;;;;;;;;5036044;28;20099;-76
2023/09/30 22:50:15;;;;;;;4.78;2.53;;;;;;;;;;5041255;28;20036;-76
2023/09/30 22:52:43;;;;;;;2.75;1.80;;;;;;;;;;5056131;28;20040;-77
2023/09/30 22:55:16;;;;;;;3.88;2.03;;;;;;;;;;5055191;28;20036;-77
2023/09/30 22:57:43;;;;;;;3.15;2.13;;;;;;;;;;5055341;28;20152;-76
2023/09/30 23:00:11;;;;;;;3.10;1.83;;;;;;;;;;5056527;28;20401;-77
2023/09/30 23:02:38;;;;;;;4.85;2.33;;;;;;;;;;5052072;28;20048;-76
2023/09/30 23:05:04;;;;;;;3.90;1.90;;;;;;;;;;5029029;28;20033;-76
2023/09/30 23:07:30;;;;;;;3.08;2.10;;;;;;;;;;5061433;28;20025;-77
2023/09/30 23:09:56;;;;;;;3.92;2.10;;;;;;;;;;5055533;28;20460;-77
2023/09/30 23:12:23;;;;;;;2.40;1.73;;;;;;;;;;5034033;28;20127;-77
2023/09/30 23:14:48;;;;;;;4.13;1.98;;;;;;;;;;5040574;28;20051;-77
2023/09/30 23:17:14;;;;;;;3.20;1.50;;;;;;;;;;5046540;28;20670;-76
2023/09/30 23:19:40;;;;;;;3.53;2.08;;;;;;;;;;5035204;28;20099;-74
2023/09/30 23:22:12;;;;;;;3.40;1.42;;;;;;;;;;5066856;28;20044;-75
2023/09/30 23:24:38;;;;;;;3.42;1.85;;;;;;;;;;5067938;28;20492;-75
2023/09/30 23:27:07;;;;;;;3.03;1.70;;;;;;;;;;5063208;28;20046;-75
2023/09/30 23:29:37;;;;;;;4.82;1.30;;;;;;;;;;5044501;28;20040;-75
2023/09/30 23:32:05;;;;;;;3.67;1.15;;;;;;;;;;5046988;28;20078;-75
2023/09/30 23:34:32;;;;;;;2.42;1.33;;;;;;;;;;5056080;28;20489;-75
2023/09/30 23:36:59;;;;;;;2.97;1.60;;;;;;;;;;5056089;28;20109;-74
2023/09/30 23:39:25;;;;;;;2.47;1.50;;;;;;;;;;5067248;28;20063;-75
2023/09/30 23:41:51;;;;;;;3.90;1.52;;;;;;;;;;5063130;28;20058;-74
2023/09/30 23:44:18;;;;;;;2.72;1.50;;;;;;;;;;5046866;28;20453;-74
2023/09/30 23:46:45;;;;;;;3.72;1.50;;;;;;;;;;5038934;28;20118;-74
2023/09/30 23:49:12;;;;;;;2.78;1.50;;;;;;;;;;5061059;28;20135;-74
2023/09/30 23:51:39;;;;;;;2.17;1.23;;;;;;;;;;5056002;28;20767;-74
2023/09/30 23:54:07;;;;;;;2.15;1.38;;;;;;;;;;5056491;28;20032;-74